CET,Max TemperatureF,Mean TemperatureF,Min TemperatureF,Max Dew PointF,MeanDew PointF,Min DewpointF,Max Humidity, Mean Humidity, Min Humidity, Max Sea Level PressureIn, Mean Sea Level PressureIn, Min Sea Level PressureIn, Max VisibilityMiles, Mean VisibilityMiles, Min VisibilityMiles, Max Wind SpeedMPH, Mean Wind SpeedMPH, Max Gust SpeedMPH,PrecipitationIn, CloudCover, Events, WindDirDegrees
2012-11-1,50,46,41,46,40,36,93,84,71,29.24,29.06,28.94,6,6,6,20,12,32,0.00,6,Rain,171
2012-11-2,50,44,39,43,39,37,93,82,62,29.44,29.33,29.15,6,6,6,20,14,29,0.00,7,Rain,200
2012-11-3,46,42,39,43,40,37,100,91,81,29.56,29.47,29.39,6,6,6,15,10,,0.00,6,Rain,197
2012-11-4,48,42,35,45,40,34,100,90,76,29.59,29.46,29.33,6,6,0,17,8,,0.00,6,Fog-Rain,161
2012-11-5,48,40,32,45,40,32,100,92,81,29.80,29.57,29.39,6,6,1,16,9,,0.00,6,Rain,242
2012-11-6,48,38,28,46,38,28,100,89,66,30.04,29.97,29.83,6,5,0,18,6,,0.00,6,Fog-Rain,239
2012-11-7,51,48,46,50,47,43,100,92,82,30.18,30.14,30.01,6,5,2,17,11,,0.00,8,Rain,246
2012-11-8,50,48,46,46,45,41,100,86,76,30.15,30.03,29.98,6,6,4,17,14,31,0.00,8,Rain,231
2012-11-9,50,47,44,46,44,39,100,86,76,30.01,29.92,29.71,6,6,3,10,8,,0.00,8,,179
2012-11-10,51,48,44,50,48,41,100,93,81,29.71,29.54,29.44,6,5,3,14,8,,0.00,7,Rain,159
2012-11-11,51,46,41,48,44,39,100,92,82,30.09,29.82,29.47,6,4,2,17,10,,0.00,6,Rain,225
2012-11-12,46,44,41,43,41,39,100,89,81,30.30,30.21,30.09,6,5,1,13,9,,0.00,7,,206
2012-11-13,48,45,42,46,44,39,100,95,81,30.42,30.38,30.30,6,3,0,13,9,,0.00,8,Fog-Rain,180
2012-11-14,53,44,35,45,39,32,93,80,58,30.42,30.36,30.27,6,6,4,8,4,,0.00,7,,120
2012-11-15,41,38,35,37,35,34,100,89,81,30.27,30.23,30.15,5,3,1,7,4,,0.00,8,,142
2012-11-16,39,36,33,34,33,32,93,84,81,30.15,30.05,29.92,4,3,2,9,6,,0.00,8,,158
2012-11-17,46,40,33,45,38,32,100,94,81,29.92,29.83,29.77,6,3,1,13,7,,0.00,6,,172
2012-11-18,48,39,30,46,41,28,100,96,82,30.06,29.91,29.80,6,2,0,7,4,,0.00,7,Fog-Rain,291
2012-11-19,50,39,28,48,40,28,100,99,93,30.06,30.00,29.95,6,2,0,9,4,,0.00,7,Fog,143
2012-11-20,51,46,41,48,44,39,100,90,82,30.01,30.00,29.98,6,5,2,12,9,,0.00,6,,160
2012-11-21,50,44,37,45,40,36,100,89,76,29.98,29.89,29.83,6,5,1,24,11,41,0.00,7,Rain,163
2012-11-22,51,46,41,43,41,37,100,83,67,30.12,30.07,29.98,6,6,5,18,13,30,0.00,4,,191
2012-11-23,46,44,41,45,41,37,100,90,76,30.04,29.96,29.89,6,5,0,17,11,,0.00,8,Fog-Rain,178
2012-11-24,46,40,35,46,43,34,100,97,93,30.09,30.00,29.77,5,1,0,12,4,,0.00,8,Fog-Rain,88
2012-11-25,55,50,46,48,43,37,93,76,58,29.80,29.69,29.56,6,6,6,33,19,50,0.00,7,Rain,200
2012-11-26,48,44,39,46,42,37,100,90,76,29.80,29.64,29.53,6,6,4,12,9,,0.00,6,Rain,159
2012-11-27,48,44,41,41,41,39,100,87,76,29.71,29.62,29.53,6,6,3,10,6,,0.00,7,Rain,163
2012-11-28,46,40,35,45,40,34,100,95,76,29.74,29.71,29.68,6,4,0,9,4,,0.00,7,Fog-Rain,333
2012-11-29,42,38,33,37,35,32,100,90,70,29.74,29.69,29.65,6,6,4,14,7,,0.00,6,Rain,330
2012-11-30,41,34,26,39,32,27,100,95,87,29.86,29.79,29.74,6,2,0,10,3,,0.00,7,Fog,186